Time;durP1;ratioP1;P1;durP2;ratioP2;P2;SDS_P1;SDS_P2;PMS_P1;PMS_P2;Temp;Humidity;BMP_temperature;BMP_pressure;BME280_temperature;BME280_humidity;BME280_pressure;Samples;Min_cycle;Max_cycle;Signal;HPM_P1;HPM_P2
2023/02/03 00:02:17;;;;;;;2.10;0.50;;;4.90;78.00;;;;;;4993844;28;20038;-74
2023/02/03 00:04:43;;;;;;;4.25;0.65;;;5.00;77.40;;;;;;4993773;28;20022;-74
2023/02/03 00:07:12;;;;;;;3.15;0.80;;;5.00;76.80;;;;;;4993891;28;20094;-75
2023/02/03 00:09:38;;;;;;;2.45;0.70;;;4.90;76.80;;;;;;4993827;28;20061;-75
2023/02/03 00:12:05;;;;;;;2.53;0.70;;;4.80;76.90;;;;;;4993776;28;20014;-75
2023/02/03 00:14:32;;;;;;;0.40;0.32;;;4.90;76.50;;;;;;4993594;28;20471;-75
2023/02/03 00:16:58;;;;;;;1.13;0.45;;;4.90;77.20;;;;;;4976241;28;20479;-75
2023/02/03 00:19:23;;;;;;;2.08;0.50;;;4.90;76.10;;;;;;4993674;28;20041;-74
2023/02/03 00:21:49;;;;;;;1.77;0.73;;;5.00;75.80;;;;;;4993578;28;20169;-75
2023/02/03 00:24:15;;;;;;;2.50;0.45;;;5.00;75.50;;;;;;4976185;28;20426;-77
2023/02/03 00:26:44;;;;;;;2.60;0.90;;;5.00;75.40;;;;;;4993576;28;20061;-75
2023/02/03 00:29:10;;;;;;;1.15;0.57;;;5.10;75.50;;;;;;4975872;28;20172;-75
2023/02/03 00:31:36;;;;;;;2.42;0.73;;;5.00;75.60;;;;;;4976131;28;20558;-75
2023/02/03 00:34:01;;;;;;;2.20;0.63;;;5.00;76.00;;;;;;4993477;28;20034;-74
2023/02/03 00:36:27;;;;;;;4.22;0.68;;;5.00;76.30;;;;;;4993267;28;20097;-75
2023/02/03 00:38:53;;;;;;;3.33;0.90;;;5.00;77.00;;;;;;4993352;28;20439;-75
2023/02/03 00:41:20;;;;;;;2.05;0.50;;;5.00;77.20;;;;;;4993285;28;20026;-75
2023/02/03 00:43:46;;;;;;;2.60;0.60;;;5.00;77.90;;;;;;4993410;28;20049;-75
2023/02/03 00:46:12;;;;;;;2.00;0.70;;;4.90;77.70;;;;;;4993365;28;20026;-75
2023/02/03 00:48:37;;;;;;;2.95;0.70;;;4.90;77.60;;;;;;4992944;28;20046;-75
2023/02/03 00:51:03;;;;;;;3.50;0.88;;;4.90;77.80;;;;;;4993276;28;20019;-75
2023/02/03 00:53:29;;;;;;;1.80;0.50;;;4.90;77.50;;;;;;4993162;28;20032;-74
2023/02/03 00:55:55;;;;;;;2.10;0.90;;;5.00;77.20;;;;;;4995513;28;20022;-74
2023/02/03 00:58:20;;;;;;;0.70;0.43;;;5.00;77.50;;;;;;4979804;28;20019;-74
2023/02/03 01:00:46;;;;;;;1.52;0.68;;;5.00;77.20;;;;;;4997255;28;20078;-75
2023/02/03 01:03:11;;;;;;;1.27;0.50;;;4.90;77.60;;;;;;4997212;28;20041;-75
2023/02/03 01:05:37;;;;;;;2.38;0.60;;;4.90;77.60;;;;;;4997347;28;20383;-76
2023/02/03 01:08:02;;;;;;;1.27;0.60;;;5.00;77.40;;;;;;4997197;28;20049;-75
2023/02/03 01:10:29;;;;;;;1.30;0.52;;;4.90;77.50;;;;;;4997243;28;20511;-75
2023/02/03 01:12:55;;;;;;;2.40;0.70;;;5.00;77.50;;;;;;4997448;28;20038;-76
2023/02/03 01:15:20;;;;;;;3.35;0.90;;;5.00;77.20;;;;;;4997037;28;20023;-75
2023/02/03 01:17:46;;;;;;;1.85;0.60;;;5.00;77.20;;;;;;4997025;28;20050;-74
2023/02/03 01:20:12;;;;;;;1.90;0.70;;;5.00;77.30;;;;;;4996942;28;20495;-75
2023/02/03 01:22:38;;;;;;;4.25;0.70;;;5.10;77.90;;;;;;4997099;28;20026;-74
2023/02/03 01:25:04;;;;;;;3.20;0.60;;;5.10;77.20;;;;;;4996955;28;20487;-75
2023/02/03 01:27:32;;;;;;;1.10;0.65;;;5.10;76.90;;;;;;4979332;28;20125;-74
2023/02/03 01:29:57;;;;;;;1.48;0.95;;;5.10;76.90;;;;;;4996934;28;20033;-75
2023/02/03 01:32:23;;;;;;;4.03;0.70;;;5.10;77.00;;;;;;4996922;28;20027;-75
2023/02/03 01:34:49;;;;;;;1.63;0.50;;;5.10;76.90;;;;;;4996579;28;20456;-74
2023/02/03 01:37:16;;;;;;;2.00;0.65;;;5.10;77.10;;;;;;4996773;28;20053;-76
2023/02/03 01:39:43;;;;;;;1.75;0.77;;;5.10;77.30;;;;;;4996754;28;20491;-74
2023/02/03 01:42:12;;;;;;;2.33;0.73;;;5.10;77.20;;;;;;4996525;28;20062;-75
2023/02/03 01:44:40;;;;;;;3.17;0.82;;;5.00;77.30;;;;;;4996713;28;20054;-75
2023/02/03 01:47:24;;;;;;;1.55;0.68;;;5.00;77.40;;;;;;4996525;28;20036;-75
2023/02/03 01:50:09;;;;;;;1.80;0.60;;;5.10;77.20;;;;;;4996680;28;20402;-75
2023/02/03 01:52:35;;;;;;;;;;;5.10;77.10;;;;;;4978716;28;20403;-74
2023/02/03 01:55:02;;;;;;;;;;;5.00;77.80;;;;;;4997018;28;19905;-75
2023/02/03 01:57:35;;;;;;;1.65;0.63;;;5.00;77.90;;;;;;4996478;28;19913;-74
2023/02/03 02:00:04;;;;;;;1.95;0.73;;;5.00;78.10;;;;;;4996253;28;20030;-74
2023/02/03 02:02:31;;;;;;;1.95;0.60;;;5.00;77.80;;;;;;4996358;28;20026;-75
2023/02/03 02:05:13;;;;;;;2.08;0.60;;;4.90;77.80;;;;;;4996394;28;20050;-74
2023/02/03 02:07:41;;;;;;;3.20;0.52;;;5.00;78.00;;;;;;5008520;28;20042;-74
2023/02/03 02:10:08;;;;;;;0.93;0.60;;;5.00;78.20;;;;;;5004245;28;20518;-75
2023/02/03 02:12:33;;;;;;;1.50;0.50;;;4.90;78.70;;;;;;4978863;28;20033;-74
2023/02/03 02:14:59;;;;;;;1.52;0.55;;;4.80;79.00;;;;;;4996207;28;20496;-77
2023/02/03 02:18:02;;;;;;;0.85;0.40;;;4.80;79.10;;;;;;4978627;28;20031;-76
2023/02/03 02:21:01;;;;;;;2.53;0.40;;;4.90;79.20;;;;;;4996061;28;20022;-75
2023/02/03 02:24:07;;;;;;;0.73;0.40;;;4.80;78.80;;;;;;4996060;28;20029;-75
2023/02/03 02:27:10;;;;;;;1.65;0.43;;;4.80;79.10;;;;;;4962765;28;20117;-74
2023/02/03 02:30:13;;;;;;;1.30;0.40;;;4.80;79.20;;;;;;4995819;28;20058;-75
2023/02/03 02:32:48;;;;;;;1.00;0.20;;;4.80;79.10;;;;;;4978349;28;20428;-75
2023/02/03 02:35:41;;;;;;;2.30;0.47;;;4.80;79.20;;;;;;4995715;28;20026;-75
2023/02/03 02:38:19;;;;;;;1.92;0.40;;;4.90;79.20;;;;;;4995535;28;20286;-75
2023/02/03 02:41:13;;;;;;;0.85;0.47;;;4.90;79.80;;;;;;4995464;28;20026;-75
2023/02/03 02:43:50;;;;;;;1.52;0.40;;;4.90;79.40;;;;;;4995768;28;20026;-75
2023/02/03 02:46:26;;;;;;;2.03;0.70;;;4.80;79.60;;;;;;4995548;28;20026;-74
2023/02/03 02:49:03;;;;;;;1.65;0.52;;;4.80;79.40;;;;;;4995375;28;20086;-75
2023/02/03 02:51:31;;;;;;;1.67;0.60;;;4.90;79.20;;;;;;4995380;28;20026;-75
2023/02/03 02:54:02;;;;;;;0.95;0.55;;;4.90;79.30;;;;;;4995154;28;20057;-74
2023/02/03 02:56:29;;;;;;;2.72;0.68;;;4.80;79.00;;;;;;4995173;28;20141;-75
2023/02/03 02:58:58;;;;;;;3.00;0.60;;;4.90;79.00;;;;;;4995422;28;20093;-74
2023/02/03 03:01:23;;;;;;;1.48;0.70;;;4.80;78.90;;;;;;4995181;28;20034;-75
2023/02/03 03:03:49;;;;;;;0.55;0.40;;;4.90;78.90;;;;;;4995376;28;20535;-75
2023/02/03 03:06:36;;;;;;;0.73;0.47;;;4.80;79.30;;;;;;4995174;28;20109;-75
2023/02/03 03:09:08;;;;;;;1.83;0.60;;;4.90;78.40;;;;;;4995128;28;20038;-76
2023/02/03 03:11:48;;;;;;;0.90;0.40;;;4.80;78.30;;;;;;4995138;28;20384;-77
2023/02/03 03:14:16;;;;;;;0.80;0.40;;;4.90;78.30;;;;;;4995133;28;20030;-73
2023/02/03 03:16:49;;;;;;;2.00;0.70;;;4.90;78.30;;;;;;4994974;28;20034;-74
2023/02/03 03:19:20;;;;;;;1.75;0.55;;;4.90;78.30;;;;;;4994039;28;20042;-74
2023/02/03 03:21:53;;;;;;;2.08;0.47;;;4.90;78.10;;;;;;4994757;28;20030;-75
2023/02/03 03:24:26;;;;;;;1.33;0.50;;;5.00;78.00;;;;;;4994711;28;20046;-74
2023/02/03 03:26:58;;;;;;;0.73;0.40;;;4.90;78.20;;;;;;4994883;28;20077;-74
2023/02/03 03:29:42;;;;;;;1.42;0.52;;;4.80;78.00;;;;;;4994700;28;20125;-78
2023/02/03 03:32:08;;;;;;;0.45;0.28;;;4.80;78.20;;;;;;4994897;28;20026;-80
2023/02/03 03:34:34;;;;;;;2.65;0.77;;;4.80;78.20;;;;;;4994854;28;20026;-76
2023/02/03 03:37:03;;;;;;;1.02;0.50;;;4.80;78.10;;;;;;4994622;28;20105;-79
2023/02/03 03:39:53;;;;;;;1.38;0.40;;;4.80;78.00;;;;;;4994608;28;20022;-76
2023/02/03 03:42:32;;;;;;;1.05;0.35;;;4.80;78.30;;;;;;4994476;28;20026;-75
2023/02/03 03:45:32;;;;;;;0.82;0.50;;;4.80;78.10;;;;;;4977115;28;20057;-76
2023/02/03 03:48:20;;;;;;;2.20;0.40;;;4.80;78.10;;;;;;4924417;28;20042;-74
2023/02/03 03:50:50;;;;;;;0.35;0.35;;;4.90;78.00;;;;;;4994222;28;20105;-74
2023/02/03 03:53:18;;;;;;;1.48;0.70;;;4.90;77.90;;;;;;4994481;28;20037;-74
2023/02/03 03:55:48;;;;;;;0.30;0.30;;;4.80;78.00;;;;;;4994501;28;20093;-74
2023/02/03 03:58:18;;;;;;;2.10;0.57;;;4.70;78.00;;;;;;4994586;28;20486;-74
2023/02/03 04:00:45;;;;;;;3.08;0.60;;;4.70;77.90;;;;;;4994650;28;20026;-74
2023/02/03 04:03:15;;;;;;;2.20;0.50;;;4.80;77.60;;;;;;4994914;28;20105;-74
2023/02/03 04:05:41;;;;;;;2.17;0.70;;;4.80;78.20;;;;;;4996221;28;20541;-74
2023/02/03 04:08:07;;;;;;;0.70;0.40;;;4.80;77.50;;;;;;4999189;28;20038;-74
2023/02/03 04:10:38;;;;;;;1.08;0.43;;;4.80;77.20;;;;;;4995932;28;20080;-74
2023/02/03 04:13:05;;;;;;;1.15;0.35;;;4.90;77.30;;;;;;4994624;28;20026;-74
2023/02/03 04:15:32;;;;;;;0.50;0.30;;;4.90;76.80;;;;;;4994124;28;20037;-74
2023/02/03 04:18:00;;;;;;;0.60;0.50;;;4.90;76.60;;;;;;4993963;28;20101;-74
2023/02/03 04:20:26;;;;;;;1.38;0.30;;;4.80;76.80;;;;;;4993855;28;20112;-74
2023/02/03 04:22:52;;;;;;;0.93;0.50;;;4.80;76.70;;;;;;4993908;28;20081;-74
2023/02/03 04:25:18;;;;;;;1.02;0.50;;;4.80;77.20;;;;;;4993897;28;20026;-75
2023/02/03 04:27:43;;;;;;;0.52;0.40;;;4.80;77.10;;;;;;4993591;28;20430;-75
2023/02/03 04:30:09;;;;;;;1.15;0.30;;;4.80;77.10;;;;;;4993402;28;20030;-74
2023/02/03 04:32:35;;;;;;;1.05;0.57;;;4.90;76.90;;;;;;4993636;28;20045;-75
2023/02/03 04:35:02;;;;;;;0.73;0.50;;;4.90;76.60;;;;;;4993768;28;20026;-74
2023/02/03 04:37:27;;;;;;;3.42;0.70;;;4.90;76.20;;;;;;4993451;28;20058;-75
2023/02/03 04:39:54;;;;;;;2.08;0.50;;;4.90;75.80;;;;;;4993682;28;20459;-74
2023/02/03 04:42:20;;;;;;;1.30;0.50;;;5.00;75.20;;;;;;4993263;28;20049;-75
2023/02/03 04:44:46;;;;;;;1.15;0.55;;;5.00;74.60;;;;;;4993544;28;20023;-74
2023/02/03 04:47:12;;;;;;;0.65;0.38;;;5.10;73.80;;;;;;4993523;28;20045;-74
2023/02/03 04:49:37;;;;;;;1.67;0.60;;;5.10;74.10;;;;;;4993517;28;20038;-74
2023/02/03 04:52:03;;;;;;;4.10;0.70;;;5.10;73.00;;;;;;4993446;28;20435;-74
2023/02/03 04:54:29;;;;;;;1.38;0.40;;;5.20;72.90;;;;;;4993425;28;20027;-73
2023/02/03 04:56:54;;;;;;;0.73;0.40;;;5.20;73.10;;;;;;4993393;28;20490;-76
2023/02/03 04:59:20;;;;;;;1.67;0.35;;;5.20;72.90;;;;;;4993339;28;20026;-74
2023/02/03 05:01:45;;;;;;;2.58;0.40;;;5.10;72.90;;;;;;4993289;28;20038;-74
2023/02/03 05:04:11;;;;;;;0.50;0.50;;;5.10;73.00;;;;;;4976020;28;20023;-74
2023/02/03 05:06:36;;;;;;;4.85;0.70;;;5.10;73.00;;;;;;4975812;28;20125;-74
2023/02/03 05:09:02;;;;;;;0.98;0.60;;;5.10;72.70;;;;;;4993317;28;20042;-75
2023/02/03 05:11:28;;;;;;;1.33;0.80;;;5.10;72.80;;;;;;4993088;28;20530;-75
2023/02/03 05:13:55;;;;;;;7.47;0.80;;;5.10;73.10;;;;;;4993281;28;20077;-75
2023/02/03 05:16:20;;;;;;;3.00;0.60;;;5.10;73.60;;;;;;4993291;28;20380;-74
2023/02/03 05:18:46;;;;;;;3.35;0.60;;;5.00;73.50;;;;;;4993304;28;20031;-75
2023/02/03 05:21:12;;;;;;;0.45;0.40;;;5.00;73.50;;;;;;4993169;28;20102;-75
2023/02/03 05:23:37;;;;;;;1.88;0.57;;;5.00;73.70;;;;;;4993177;28;20093;-75
2023/02/03 05:26:03;;;;;;;1.63;0.55;;;5.00;73.70;;;;;;4993064;28;20025;-74
2023/02/03 05:28:29;;;;;;;1.52;0.60;;;4.90;73.80;;;;;;4993058;28;20038;-74
2023/02/03 05:30:58;;;;;;;2.15;0.60;;;4.90;74.00;;;;;;4975805;28;20076;-74
2023/02/03 05:33:23;;;;;;;1.35;0.70;;;5.00;74.00;;;;;;4993035;28;20050;-74
2023/02/03 05:35:49;;;;;;;1.85;0.60;;;5.00;73.40;;;;;;4993174;28;20060;-74
2023/02/03 05:38:15;;;;;;;1.10;0.70;;;5.00;73.60;;;;;;4992480;28;20449;-74
2023/02/03 05:43:27;;;;;;;1.60;0.85;;;5.00;73.60;;;;;;4996584;28;20072;-75
2023/02/03 05:45:53;;;;;;;3.25;1.20;;;5.00;73.50;;;;;;4996474;28;20510;-75
2023/02/03 05:48:18;;;;;;;1.08;0.80;;;5.00;73.40;;;;;;4996367;28;20223;-75
2023/02/03 05:50:44;;;;;;;1.77;0.85;;;5.00;73.70;;;;;;4996548;28;20027;-76
2023/02/03 05:53:10;;;;;;;1.95;0.55;;;5.00;73.70;;;;;;4996593;28;20080;-74
2023/02/03 05:55:36;;;;;;;2.63;0.80;;;5.00;73.50;;;;;;4996543;28;20019;-74
2023/02/03 05:58:02;;;;;;;1.25;0.70;;;5.00;73.70;;;;;;4996465;28;20031;-74
2023/02/03 06:00:28;;;;;;;2.50;0.80;;;5.10;73.60;;;;;;4996266;28;20363;-74
2023/02/03 06:02:59;;;;;;;4.57;1.52;;;5.00;73.60;;;;;;4996160;28;20026;-74
2023/02/03 06:05:25;;;;;;;2.65;1.05;;;5.10;73.90;;;;;;4996247;28;20025;-73
2023/02/03 06:07:51;;;;;;;2.67;0.95;;;5.00;73.90;;;;;;4994901;28;20049;-73
2023/02/03 06:10:17;;;;;;;4.38;2.10;;;5.00;73.90;;;;;;4959207;28;20471;-73
2023/02/03 06:12:43;;;;;;;1.60;1.00;;;5.00;73.80;;;;;;4976371;28;20026;-74
2023/02/03 06:15:10;;;;;;;3.60;1.30;;;5.00;74.00;;;;;;4976503;28;20421;-75
2023/02/03 06:17:36;;;;;;;4.50;1.05;;;5.00;74.20;;;;;;4976446;28;20019;-74
2023/02/03 06:20:06;;;;;;;4.88;1.10;;;5.00;74.30;;;;;;4976366;28;20027;-73
2023/02/03 06:22:32;;;;;;;2.65;0.85;;;5.00;74.60;;;;;;4976237;28;20027;-73
2023/02/03 06:24:57;;;;;;;0.73;0.73;;;5.00;74.90;;;;;;4976152;28;20034;-74
2023/02/03 06:27:23;;;;;;;1.67;0.77;;;5.00;75.20;;;;;;4976435;28;20033;-74
2023/02/03 06:29:49;;;;;;;1.48;0.73;;;4.90;76.00;;;;;;4976135;28;20038;-74
2023/02/03 06:32:15;;;;;;;2.13;0.95;;;4.90;76.60;;;;;;4976079;28;20019;-76
2023/02/03 06:34:40;;;;;;;4.97;1.35;;;4.90;77.80;;;;;;4962742;28;20487;-74
2023/02/03 06:37:06;;;;;;;4.20;1.35;;;4.90;78.60;;;;;;4995414;28;20050;-74
2023/02/03 06:39:32;;;;;;;3.00;1.00;;;4.80;80.00;;;;;;4994956;28;20054;-74
2023/02/03 06:41:57;;;;;;;4.22;1.17;;;4.80;79.60;;;;;;4995026;28;20549;-74
2023/02/03 06:44:23;;;;;;;1.88;0.88;;;4.70;79.50;;;;;;4995428;28;20033;-73
2023/02/03 06:46:49;;;;;;;2.63;1.00;;;4.80;79.30;;;;;;4995534;28;20026;-75
2023/02/03 06:49:16;;;;;;;3.60;1.25;;;4.80;79.10;;;;;;4995489;28;20053;-82
2023/02/03 06:51:42;;;;;;;3.65;1.27;;;4.70;79.50;;;;;;4995732;28;20388;-80
2023/02/03 06:54:08;;;;;;;3.40;1.10;;;4.70;79.90;;;;;;4995437;28;20038;-78
2023/02/03 06:56:34;;;;;;;3.25;1.10;;;4.70;81.30;;;;;;4995124;28;20022;-80
2023/02/03 06:58:59;;;;;;;4.18;1.35;;;4.70;80.50;;;;;;4995049;28;20033;-75
2023/02/03 07:01:25;;;;;;;2.40;0.82;;;4.70;80.80;;;;;;4995114;28;20030;-75
2023/02/03 07:03:51;;;;;;;4.22;1.00;;;4.60;80.50;;;;;;4995182;28;20639;-74
2023/02/03 07:06:17;;;;;;;2.53;1.00;;;4.70;80.20;;;;;;4994957;28;20034;-75
2023/02/03 07:08:43;;;;;;;2.08;0.60;;;4.70;79.80;;;;;;4994860;28;20034;-74
2023/02/03 07:11:09;;;;;;;2.50;1.20;;;4.70;79.30;;;;;;4977418;28;20022;-75
2023/02/03 07:13:34;;;;;;;5.50;1.35;;;4.70;78.40;;;;;;4994668;28;20387;-74
2023/02/03 07:16:00;;;;;;;1.83;0.90;;;4.80;78.30;;;;;;4994850;28;20034;-74
2023/02/03 07:18:26;;;;;;;3.40;0.93;;;4.80;77.90;;;;;;4994684;28;20034;-75
2023/02/03 07:20:52;;;;;;;4.38;0.90;;;4.80;77.70;;;;;;4994948;28;20023;-75
2023/02/03 07:23:18;;;;;;;3.30;1.00;;;4.80;78.00;;;;;;4994600;28;20106;-75
2023/02/03 07:25:44;;;;;;;2.45;0.90;;;4.90;77.70;;;;;;4995043;28;20034;-74
2023/02/03 07:28:10;;;;;;;3.78;1.00;;;4.80;77.30;;;;;;4994611;28;20054;-75
2023/02/03 07:30:35;;;;;;;3.88;1.15;;;4.90;77.20;;;;;;4994485;28;20027;-74
2023/02/03 07:33:01;;;;;;;2.13;1.05;;;4.90;77.10;;;;;;4994399;28;20100;-75
2023/02/03 07:35:27;;;;;;;1.70;0.70;;;4.90;77.20;;;;;;4976987;28;20426;-74
2023/02/03 07:37:53;;;;;;;1.15;0.90;;;5.00;76.60;;;;;;4994184;28;20070;-74
2023/02/03 07:40:19;;;;;;;2.42;0.95;;;5.00;76.70;;;;;;4994341;28;20030;-74
2023/02/03 07:42:48;;;;;;;3.42;0.95;;;5.00;76.00;;;;;;4994424;28;20375;-74
2023/02/03 07:45:16;;;;;;;2.33;1.10;;;5.00;76.80;;;;;;4994219;28;20081;-76
2023/02/03 07:47:43;;;;;;;1.77;0.90;;;5.10;76.10;;;;;;4993921;28;20022;-73
2023/02/03 07:50:11;;;;;;;1.52;0.75;;;5.20;74.80;;;;;;4977365;28;20058;-74
2023/02/03 07:52:37;;;;;;;2.35;0.80;;;5.20;75.00;;;;;;4994390;28;20114;-74
2023/02/03 07:55:03;;;;;;;1.40;0.80;;;5.20;75.10;;;;;;4994213;28;20451;-74
2023/02/03 07:57:28;;;;;;;2.40;0.90;;;5.30;73.80;;;;;;4993997;28;20029;-74
2023/02/03 07:59:54;;;;;;;5.00;1.40;;;5.20;74.10;;;;;;4993685;28;20027;-75
2023/02/03 08:02:20;;;;;;;3.28;1.00;;;5.30;74.10;;;;;;4993969;28;20030;-74
2023/02/03 08:04:45;;;;;;;1.95;0.90;;;5.30;74.30;;;;;;4993509;28;20026;-74
2023/02/03 08:07:11;;;;;;;4.90;0.95;;;5.30;74.30;;;;;;4993601;28;20025;-74
2023/02/03 08:09:36;;;;;;;1.08;0.80;;;5.40;74.20;;;;;;4993402;28;20038;-76
2023/02/03 08:12:02;;;;;;;3.13;1.30;;;5.40;74.30;;;;;;4993692;28;20077;-79
2023/02/03 08:14:28;;;;;;;1.67;0.90;;;5.40;73.60;;;;;;4975886;28;20116;-75
2023/02/03 08:16:53;;;;;;;3.40;1.02;;;5.40;73.90;;;;;;4993509;28;20032;-76
2023/02/03 08:19:19;;;;;;;3.03;1.10;;;5.40;73.70;;;;;;4976042;28;20049;-76
2023/02/03 08:21:44;;;;;;;2.35;1.25;;;5.50;72.90;;;;;;4993556;28;20412;-76
2023/02/03 08:24:10;;;;;;;2.20;0.80;;;5.50;73.10;;;;;;4993683;28;20046;-74
2023/02/03 08:26:36;;;;;;;2.67;0.80;;;5.50;73.00;;;;;;4993769;28;20219;-74
2023/02/03 08:29:03;;;;;;;1.00;0.77;;;5.50;72.70;;;;;;4993367;28;20062;-75
2023/02/03 08:31:29;;;;;;;2.92;0.90;;;5.60;72.40;;;;;;4993558;28;20101;-75
2023/02/03 08:33:55;;;;;;;1.90;0.77;;;5.70;72.50;;;;;;4993584;28;20471;-75
2023/02/03 08:36:20;;;;;;;4.30;1.20;;;5.80;71.80;;;;;;4993123;28;20031;-75
2023/02/03 08:38:46;;;;;;;1.77;0.85;;;6.00;70.80;;;;;;4993626;28;20558;-75
2023/02/03 08:41:14;;;;;;;0.73;0.68;;;6.10;69.90;;;;;;4993582;28;20026;-74
2023/02/03 08:43:40;;;;;;;3.50;1.02;;;6.10;69.30;;;;;;4997679;28;20041;-75
2023/02/03 08:46:07;;;;;;;1.80;1.08;;;6.20;69.50;;;;;;4994294;28;20026;-75
2023/02/03 08:48:33;;;;;;;2.50;1.02;;;6.10;70.10;;;;;;4995083;28;20041;-76
2023/02/03 08:50:59;;;;;;;4.80;1.42;;;6.00;69.30;;;;;;4994859;28;20031;-74
2023/02/03 08:53:24;;;;;;;2.17;0.90;;;5.90;70.00;;;;;;4993273;28;20027;-75
2023/02/03 08:55:50;;;;;;;0.50;0.50;;;5.90;70.50;;;;;;4975910;28;20030;-75
2023/02/03 08:58:16;;;;;;;1.77;1.05;;;5.90;70.70;;;;;;4993604;28;20031;-75
2023/02/03 09:00:42;;;;;;;2.95;1.40;;;5.80;71.10;;;;;;4993367;28;20029;-75
2023/02/03 09:03:08;;;;;;;3.53;1.08;;;5.80;71.60;;;;;;4994167;28;20026;-75
2023/02/03 09:05:33;;;;;;;1.67;1.08;;;6.00;71.60;;;;;;4993428;28;20019;-75
2023/02/03 09:07:59;;;;;;;5.07;1.92;;;6.00;71.10;;;;;;4993670;28;20041;-76
2023/02/03 09:10:24;;;;;;;5.18;1.58;;;6.00;72.10;;;;;;4993962;28;20073;-76
2023/02/03 09:12:50;;;;;;;2.05;1.05;;;6.10;71.30;;;;;;4993132;28;20491;-75
2023/02/03 09:15:16;;;;;;;0.60;0.60;;;6.00;71.40;;;;;;4992967;28;20097;-75
2023/02/03 09:17:41;;;;;;;2.80;1.10;;;6.00;71.80;;;;;;4996662;28;20023;-75
2023/02/03 09:20:08;;;;;;;3.05;1.05;;;5.90;71.90;;;;;;4997079;28;20030;-76
2023/02/03 09:22:33;;;;;;;3.88;0.85;;;5.80;72.00;;;;;;4996771;28;20033;-75
2023/02/03 09:24:59;;;;;;;3.95;1.75;;;5.90;72.40;;;;;;4996733;28;20026;-77
2023/02/03 09:27:24;;;;;;;1.80;0.80;;;6.00;72.50;;;;;;4996837;28;20114;-76
2023/02/03 09:29:50;;;;;;;3.17;1.15;;;6.30;71.40;;;;;;4996607;28;20041;-76
2023/02/03 09:32:15;;;;;;;2.40;0.88;;;6.40;70.40;;;;;;4996749;28;20026;-76
2023/02/03 09:34:41;;;;;;;3.58;0.90;;;6.30;71.10;;;;;;4979119;28;20026;-75
2023/02/03 09:37:07;;;;;;;2.30;0.70;;;6.20;70.40;;;;;;4996643;28;20050;-76
2023/02/03 09:39:32;;;;;;;3.33;0.93;;;6.10;70.70;;;;;;4996265;28;20022;-75
2023/02/03 09:42:18;;;;;;;1.73;0.55;;;6.00;71.80;;;;;;4995857;28;20030;-75
2023/02/03 09:45:06;;;;;;;2.55;1.05;;;5.90;72.40;;;;;;4996274;28;20029;-76
2023/02/03 09:47:36;;;;;;;1.88;1.00;;;5.90;72.90;;;;;;4996093;28;20101;-75
2023/02/03 09:50:06;;;;;;;3.50;0.95;;;5.80;72.60;;;;;;4996225;28;20035;-76
2023/02/03 09:52:40;;;;;;;1.80;1.02;;;5.90;73.60;;;;;;4996206;28;20022;-78
2023/02/03 09:55:25;;;;;;;2.17;1.20;;;5.90;73.50;;;;;;4996014;28;20030;-79
2023/02/03 09:58:11;;;;;;;1.53;0.70;;;6.10;73.50;;;;;;4996024;28;20041;-76
2023/02/03 10:00:49;;;;;;;1.58;0.82;;;6.40;72.00;;;;;;4978429;28;20045;-76
2023/02/03 10:03:51;;;;;;;2.38;0.90;;;6.70;71.60;;;;;;4996042;28;20027;-80
2023/02/03 10:06:31;;;;;;;3.47;0.90;;;7.00;69.90;;;;;;4996053;28;20117;-76
2023/02/03 10:09:06;;;;;;;1.55;0.90;;;7.40;67.40;;;;;;4995803;28;20070;-76
2023/02/03 10:12:00;;;;;;;1.95;0.60;;;7.40;67.20;;;;;;4995572;28;20053;-76
2023/02/03 10:14:47;;;;;;;4.38;0.98;;;7.40;66.60;;;;;;4959845;28;20049;-76
2023/02/03 10:17:34;;;;;;;1.75;0.73;;;7.40;66.40;;;;;;4995520;28;20109;-76
2023/02/03 10:20:21;;;;;;;2.75;0.60;;;7.10;67.10;;;;;;4995114;28;20030;-76
2023/02/03 10:22:58;;;;;;;2.35;0.70;;;6.80;68.80;;;;;;4995341;28;20494;-77
2023/02/03 10:25:39;;;;;;;1.48;0.70;;;6.70;69.10;;;;;;4995130;28;20027;-76
2023/02/03 10:28:17;;;;;;;1.40;0.60;;;6.60;69.80;;;;;;4977625;28;20038;-76
2023/02/03 10:30:53;;;;;;;2.30;0.93;;;6.50;69.80;;;;;;4995373;28;20364;-76
2023/02/03 10:33:19;;;;;;;2.65;0.85;;;6.50;70.10;;;;;;4995390;28;20158;-76
2023/02/03 10:35:49;;;;;;;6.00;0.95;;;6.40;70.90;;;;;;4994614;28;20483;-76
2023/02/03 10:38:32;;;;;;;0.95;0.73;;;6.50;70.80;;;;;;4977405;28;20105;-80
2023/02/03 10:40:58;;;;;;;3.10;0.82;;;6.50;70.40;;;;;;4977407;28;20034;-80
2023/02/03 10:46:07;;;;;;;1.83;0.85;;;6.30;71.40;;;;;;4995031;28;20033;-79
2023/02/03 10:48:33;;;;;;;1.00;0.57;;;6.40;71.20;;;;;;4977374;28;20038;-79
2023/02/03 10:51:01;;;;;;;1.70;0.80;;;6.50;70.80;;;;;;4994995;28;20029;-76
2023/02/03 10:53:35;;;;;;;2.47;0.75;;;6.50;70.80;;;;;;4983390;28;20503;-78
2023/02/03 10:56:09;;;;;;;1.48;0.50;;;6.50;71.50;;;;;;4975562;28;20075;-75
2023/02/03 10:58:37;;;;;;;1.88;0.57;;;6.50;70.80;;;;;;4975482;28;20030;-78
2023/02/03 11:01:12;;;;;;;0.75;0.70;;;6.60;70.20;;;;;;4975092;28;20034;-77
2023/02/03 11:03:42;;;;;;;;;;;6.50;70.00;;;;;;4975341;28;20061;-76
2023/02/03 11:06:11;;;;;;;1.40;0.50;;;6.60;69.80;;;;;;4958035;28;20058;-77
2023/02/03 11:08:40;;;;;;;0.98;0.70;;;6.60;69.50;;;;;;4957564;28;20031;-79
2023/02/03 11:11:23;;;;;;;0.50;0.45;;;6.60;68.80;;;;;;4975078;28;20344;-78
2023/02/03 11:13:55;;;;;;;1.83;0.50;;;6.60;69.30;;;;;;4957958;28;20490;-77
2023/02/03 11:16:23;;;;;;;0.60;0.30;;;6.70;69.60;;;;;;4952721;28;20038;-77
2023/02/03 11:18:59;;;;;;;0.52;0.45;;;6.80;67.60;;;;;;4957927;28;20470;-79
2023/02/03 11:21:32;;;;;;;2.08;0.50;;;6.90;67.20;;;;;;4957865;28;20031;-80
2023/02/03 11:24:19;;;;;;;0.77;0.40;;;7.10;66.90;;;;;;4958015;28;20070;-77
2023/02/03 11:27:01;;;;;;;1.50;0.40;;;7.10;65.60;;;;;;4957779;28;20022;-77
2023/02/03 11:29:31;;;;;;;2.20;0.70;;;7.30;65.00;;;;;;4974852;28;20038;-79
2023/02/03 11:32:00;;;;;;;0.45;0.30;;;7.40;65.30;;;;;;4975183;28;20023;-78
2023/02/03 11:34:33;;;;;;;1.20;0.60;;;7.60;64.40;;;;;;4957822;28;20031;-74
2023/02/03 11:37:37;;;;;;;1.05;0.40;;;7.80;63.70;;;;;;4974317;28;20050;-77
2023/02/03 11:40:06;;;;;;;0.90;0.60;;;7.80;61.60;;;;;;4956481;28;20027;-75
2023/02/03 11:42:35;;;;;;;1.33;0.50;;;7.70;62.20;;;;;;4957564;28;20023;-74
2023/02/03 11:45:25;;;;;;;0.63;0.30;;;7.60;63.00;;;;;;4957057;28;20018;-78
2023/02/03 11:48:05;;;;;;;0.50;0.40;;;7.70;61.50;;;;;;4975049;28;20027;-79
2023/02/03 11:50:35;;;;;;;0.10;0.10;;;7.90;61.80;;;;;;4957124;28;20031;-75
2023/02/03 11:53:24;;;;;;;2.75;0.88;;;8.00;60.80;;;;;;4956822;28;20054;-76
2023/02/03 11:56:03;;;;;;;1.15;0.30;;;7.80;61.60;;;;;;4957284;28;20082;-81
2023/02/03 11:59:18;;;;;;;0.60;0.47;;;7.50;62.30;;;;;;4974448;28;20121;-75
2023/02/03 12:02:04;;;;;;;2.05;0.70;;;7.50;63.30;;;;;;4912934;28;20383;-75
2023/02/03 12:04:50;;;;;;;3.50;0.63;;;7.50;62.80;;;;;;4957324;28;20147;-78
2023/02/03 12:07:43;;;;;;;1.48;0.63;;;7.60;62.30;;;;;;4974406;28;20081;-74
2023/02/03 12:10:27;;;;;;;6.60;0.57;;;7.50;62.40;;;;;;4956799;28;20050;-74
2023/02/03 12:13:36;;;;;;;0.65;0.30;;;7.10;62.80;;;;;;4956919;28;20030;-79
2023/02/03 12:16:26;;;;;;;1.27;0.30;;;7.00;63.50;;;;;;4952011;28;20035;-74
2023/02/03 12:19:04;;;;;;;0.57;0.40;;;7.10;63.00;;;;;;4951949;28;20023;-79
2023/02/03 12:21:44;;;;;;;1.17;0.50;;;7.00;63.60;;;;;;4956791;28;20026;-78
2023/02/03 12:24:27;;;;;;;0.90;0.32;;;7.10;63.20;;;;;;4957042;28;20383;-76
2023/02/03 12:27:11;;;;;;;0.60;0.40;;;7.00;64.10;;;;;;4974137;28;20056;-78
2023/02/03 12:29:43;;;;;;;1.90;0.30;;;7.00;63.60;;;;;;4956644;28;20035;-75
2023/02/03 12:32:30;;;;;;;1.05;0.25;;;6.90;64.60;;;;;;4957171;28;20032;-77
2023/02/03 12:35:01;;;;;;;2.95;0.50;;;6.80;65.10;;;;;;4956533;28;20037;-77
2023/02/03 12:37:40;;;;;;;2.60;0.70;;;6.70;65.30;;;;;;4956471;28;20047;-80
2023/02/03 12:40:24;;;;;;;1.30;0.47;;;6.60;66.00;;;;;;4956343;28;20387;-78
2023/02/03 12:42:57;;;;;;;0.55;0.35;;;6.60;66.10;;;;;;4956639;28;20078;-75
2023/02/03 12:45:31;;;;;;;3.08;0.40;;;6.60;66.60;;;;;;4957032;28;20025;-76
2023/02/03 12:48:03;;;;;;;1.27;0.40;;;6.60;66.80;;;;;;4956544;28;20043;-76
2023/02/03 12:50:44;;;;;;;0.82;0.50;;;6.60;66.20;;;;;;4959077;28;20035;-77
2023/02/03 12:53:23;;;;;;;1.42;0.65;;;6.70;66.30;;;;;;4963157;28;20026;-76
2023/02/03 12:56:21;;;;;;;1.67;0.73;;;6.70;66.70;;;;;;4963095;28;20023;-78
2023/02/03 12:58:54;;;;;;;1.17;0.50;;;6.70;66.70;;;;;;4962275;28;20030;-76
2023/02/03 13:01:34;;;;;;;1.20;0.40;;;6.80;66.00;;;;;;4980455;28;20050;-77
2023/02/03 13:04:09;;;;;;;2.45;0.70;;;6.90;65.90;;;;;;4980476;28;20030;-75
2023/02/03 13:07:07;;;;;;;2.25;0.70;;;6.90;65.20;;;;;;4980404;28;20231;-76
2023/02/03 13:09:42;;;;;;;1.58;0.65;;;6.70;66.40;;;;;;4979934;28;20057;-75
2023/02/03 13:12:30;;;;;;;2.63;0.70;;;6.70;66.40;;;;;;4962754;28;20033;-76
2023/02/03 13:15:19;;;;;;;2.75;0.63;;;6.60;67.30;;;;;;4979827;28;20559;-74
2023/02/03 13:18:16;;;;;;;2.58;0.93;;;6.70;66.40;;;;;;4980010;28;20038;-75
2023/02/03 13:20:42;;;;;;;1.00;0.50;;;6.70;66.20;;;;;;4957475;28;20368;-73
2023/02/03 13:23:13;;;;;;;1.88;0.82;;;6.60;66.20;;;;;;4970491;28;20025;-74
2023/02/03 13:25:44;;;;;;;1.60;0.73;;;6.60;66.90;;;;;;4976520;28;20027;-77